Carpenter Bottom, North Carolina
Current Conditions -  °F | °C
As of 6:15 PM on Wednesday 26 Nov 2014 (Local Time) from KTNB Reporting Station
Clear Clear  
Wind Chill: 30°   Ceiling: Unl
Heat Index: 35°   Visibility: 10mi
Dew Point: 32°   Wind: 5mph
Humidity: 90%   Direction: 270°W
Pressure: 29.98"   Gusts: NA
Location:  36.0825°N, 81.9964°W
Report Text: KTNB 262315Z AUTO 27004KT 10SM CLR 01/00 A2998 RMK AO2 T00140000
Loading
Personal Weather Stations






























Interactive Weather Map New forecast layout! Learn more

10-Day Weather Forecast

Advertisements
Track Severe Weather on mobile